createdAt,value
2022-10-22T00:00:08.522Z,23.12
2022-10-22T00:02:36.405Z,23.14
2022-10-22T00:05:04.777Z,23.05
2022-10-22T00:07:33.826Z,23.08
2022-10-22T00:10:01.781Z,23.11
2022-10-22T00:12:29.471Z,23.15
2022-10-22T00:14:58.423Z,23.15
2022-10-22T00:17:25.870Z,23.11
2022-10-22T00:19:53.159Z,23.12
2022-10-22T00:22:20.869Z,23.11
2022-10-22T00:24:48.455Z,23.11
2022-10-22T00:27:16.149Z,23.07
2022-10-22T00:29:44.385Z,23.01
2022-10-22T00:32:12.747Z,23.05
2022-10-22T00:34:40.511Z,23.07
2022-10-22T00:37:08.357Z,22.99
2022-10-22T00:39:36.266Z,23.01
2022-10-22T00:42:04.136Z,23.01
2022-10-22T00:45:16.491Z,23.04
2022-10-22T00:47:44.240Z,22.99
2022-10-22T00:50:16.480Z,22.88
2022-10-22T00:52:45.449Z,22.99
2022-10-22T00:55:15.081Z,23.10
2022-10-22T00:57:43.560Z,23.14
2022-10-22T01:00:12.552Z,23.16
2022-10-22T01:02:40.460Z,23.22
2022-10-22T01:05:08.747Z,23.20
2022-10-22T01:07:52.445Z,23.26
2022-10-22T01:10:23.067Z,23.23
2022-10-22T01:13:13.871Z,23.23
2022-10-22T01:15:52.952Z,23.25
2022-10-22T01:18:48.804Z,23.28
2022-10-22T01:21:37.936Z,23.23
2022-10-22T01:24:21.295Z,23.19
2022-10-22T01:27:27.674Z,23.20
2022-10-22T01:30:08.700Z,23.12
2022-10-22T01:32:46.170Z,23.13
2022-10-22T01:35:20.259Z,23.10
2022-10-22T01:37:53.729Z,23.08
2022-10-22T01:40:32.046Z,23.11
2022-10-22T01:43:09.812Z,23.09
2022-10-22T01:45:59.772Z,23.09
2022-10-22T01:49:06.206Z,22.98
2022-10-22T01:51:40.312Z,23.01
2022-10-22T01:54:35.673Z,23.02
2022-10-22T01:57:36.318Z,23.00
2022-10-22T02:00:12.225Z,22.98
2022-10-22T02:02:44.881Z,22.98
2022-10-22T02:05:23.894Z,23.01
2022-10-22T02:07:58.278Z,23.00
2022-10-22T02:10:27.651Z,22.99
2022-10-22T02:13:01.784Z,22.95
2022-10-22T02:15:33.876Z,22.90
2022-10-22T02:18:03.766Z,22.84
2022-10-22T02:20:36.330Z,22.69
2022-10-22T02:23:05.462Z,22.60
2022-10-22T02:25:36.600Z,22.65
2022-10-22T02:28:16.856Z,22.61
2022-10-22T02:30:50.542Z,22.61
2022-10-22T02:33:33.170Z,22.61
2022-10-22T02:36:03.434Z,22.56
2022-10-22T02:38:33.520Z,22.53
2022-10-22T02:41:02.095Z,22.60
2022-10-22T02:43:30.991Z,22.59
2022-10-22T02:45:58.959Z,22.57
2022-10-22T02:48:27.477Z,22.62
2022-10-22T02:50:55.894Z,22.60
2022-10-22T02:53:24.047Z,22.58
2022-10-22T02:55:52.160Z,22.59
2022-10-22T02:58:20.181Z,22.58
2022-10-22T03:00:49.995Z,22.52
2022-10-22T03:03:18.372Z,22.49
2022-10-22T03:05:52.754Z,22.50
2022-10-22T03:08:21.376Z,22.49
2022-10-22T03:10:49.725Z,22.49
2022-10-22T03:13:18.412Z,22.48
2022-10-22T03:15:46.559Z,22.47
2022-10-22T03:18:14.961Z,22.38
2022-10-22T03:20:43.262Z,22.40
2022-10-22T03:23:14.980Z,22.42
2022-10-22T03:25:45.417Z,22.43
2022-10-22T03:28:16.700Z,22.46
2022-10-22T03:30:45.231Z,22.44
2022-10-22T03:33:13.699Z,22.41
2022-10-22T03:35:47.925Z,22.42
2022-10-22T03:38:16.529Z,22.41
2022-10-22T03:40:46.380Z,22.39
2022-10-22T03:43:22.927Z,22.38
2022-10-22T03:45:50.981Z,22.37
2022-10-22T03:48:19.208Z,22.34
2022-10-22T03:50:47.216Z,22.33
2022-10-22T03:53:15.468Z,22.23
2022-10-22T03:55:43.771Z,22.23
2022-10-22T03:58:12.486Z,22.23
2022-10-22T04:00:41.651Z,22.23
2022-10-22T04:03:09.956Z,22.18
2022-10-22T04:05:38.144Z,22.21
2022-10-22T04:08:05.978Z,22.19
2022-10-22T04:10:34.884Z,22.15
2022-10-22T04:13:03.602Z,22.13
2022-10-22T04:15:31.256Z,22.10
2022-10-22T04:17:59.032Z,22.10
2022-10-22T04:20:26.483Z,22.11
2022-10-22T04:22:54.069Z,22.13
2022-10-22T04:25:21.447Z,22.14
2022-10-22T04:27:49.033Z,22.14
2022-10-22T04:30:16.691Z,22.09
2022-10-22T04:32:44.158Z,21.91
2022-10-22T04:35:12.087Z,21.86
2022-10-22T04:37:40.158Z,21.93
2022-10-22T04:40:09.569Z,21.93
2022-10-22T04:42:37.080Z,21.96
2022-10-22T04:45:05.545Z,21.98
2022-10-22T04:47:33.732Z,21.94
2022-10-22T04:50:01.416Z,21.95
2022-10-22T04:52:29.472Z,21.95
2022-10-22T04:54:57.212Z,21.87
2022-10-22T04:57:25.139Z,21.88
2022-10-22T04:59:54.606Z,21.86
2022-10-22T05:02:22.785Z,21.87
2022-10-22T05:04:50.418Z,21.88
2022-10-22T05:07:18.491Z,21.87
2022-10-22T05:09:46.256Z,21.82
2022-10-22T05:12:13.919Z,21.81
2022-10-22T05:14:44.944Z,21.73
2022-10-22T05:17:13.379Z,21.79
2022-10-22T05:19:41.919Z,21.71
2022-10-22T05:22:11.493Z,21.75
2022-10-22T05:24:40.644Z,21.71
2022-10-22T05:27:09.050Z,21.74
2022-10-22T05:29:37.534Z,21.75
2022-10-22T05:32:05.780Z,21.77
2022-10-22T05:34:33.939Z,21.76
2022-10-22T05:37:01.807Z,21.80
2022-10-22T05:39:30.331Z,21.81
2022-10-22T05:41:59.174Z,21.81
2022-10-22T05:44:27.452Z,21.83
2022-10-22T05:46:55.549Z,21.81
2022-10-22T05:49:23.324Z,21.82
2022-10-22T05:51:52.521Z,21.81
2022-10-22T05:54:22.931Z,21.84
2022-10-22T05:56:50.337Z,21.80
2022-10-22T05:59:18.240Z,21.70
2022-10-22T06:01:46.267Z,21.68
2022-10-22T06:04:16.652Z,21.76
2022-10-22T06:06:48.346Z,21.74
2022-10-22T06:09:27.997Z,21.78
2022-10-22T06:11:57.190Z,21.81
2022-10-22T06:14:25.892Z,21.76
2022-10-22T06:16:53.739Z,21.82
2022-10-22T06:19:23.439Z,21.77
2022-10-22T06:21:51.259Z,21.79
2022-10-22T06:24:18.919Z,21.75
2022-10-22T06:26:50.962Z,21.70
2022-10-22T06:29:18.726Z,21.74
2022-10-22T06:31:46.514Z,21.71
2022-10-22T06:34:15.509Z,21.76
2022-10-22T06:36:45.314Z,21.80
2022-10-22T06:39:14.891Z,21.77
2022-10-22T06:41:44.958Z,21.76
2022-10-22T06:44:16.670Z,21.75
2022-10-22T06:46:45.792Z,21.78
2022-10-22T06:49:15.375Z,21.81
2022-10-22T06:51:43.567Z,21.71
2022-10-22T06:54:12.837Z,21.72
2022-10-22T06:56:42.564Z,21.71
2022-10-22T06:59:10.822Z,21.82
2022-10-22T07:01:39.425Z,21.84
2022-10-22T07:04:11.588Z,21.86
2022-10-22T07:06:40.149Z,21.74
2022-10-22T07:09:08.739Z,21.75
2022-10-22T07:11:45.954Z,21.71
2022-10-22T07:14:14.877Z,21.71
2022-10-22T07:16:43.615Z,21.63
2022-10-22T07:19:12.206Z,21.73
2022-10-22T07:21:41.395Z,21.81
2022-10-22T07:24:09.382Z,21.88
2022-10-22T07:26:37.469Z,21.89
2022-10-22T07:29:06.013Z,21.91
2022-10-22T07:31:33.819Z,21.99
2022-10-22T07:34:09.178Z,22.01
2022-10-22T07:36:37.340Z,22.02
2022-10-22T07:39:08.432Z,22.01
2022-10-22T07:41:36.656Z,22.09
2022-10-22T07:44:04.478Z,22.15
2022-10-22T07:46:32.155Z,22.15
2022-10-22T07:48:59.850Z,22.28
2022-10-22T07:51:28.297Z,22.19
2022-10-22T07:53:57.406Z,22.28
2022-10-22T07:56:25.237Z,22.32
2022-10-22T07:58:53.071Z,22.32
2022-10-22T08:01:20.743Z,22.41
2022-10-22T08:04:30.646Z,22.43
2022-10-22T08:07:01.803Z,22.52
2022-10-22T08:09:39.557Z,22.58
2022-10-22T08:12:12.359Z,22.61
2022-10-22T08:14:46.743Z,22.64
2022-10-22T08:17:14.797Z,22.67
2022-10-22T08:19:47.936Z,22.66
2022-10-22T08:22:16.197Z,22.74
2022-10-22T08:24:44.089Z,22.77
2022-10-22T08:27:16.990Z,22.84
2022-10-22T08:29:45.646Z,22.93
2022-10-22T08:32:13.363Z,23.01
2022-10-22T08:34:41.922Z,22.95
2022-10-22T08:37:14.692Z,23.07
2022-10-22T08:39:42.209Z,23.10
2022-10-22T08:42:13.460Z,23.15
2022-10-22T08:45:08.455Z,23.23
2022-10-22T08:47:59.588Z,23.25
2022-10-22T08:50:52.840Z,23.34
2022-10-22T08:53:26.950Z,23.39
2022-10-22T08:55:55.120Z,23.42
2022-10-22T08:58:37.039Z,23.51
2022-10-22T09:01:15.708Z,23.58
2022-10-22T09:04:13.504Z,23.63
2022-10-22T09:06:52.153Z,23.71
2022-10-22T09:09:28.197Z,23.77
2022-10-22T09:11:59.715Z,23.78
2022-10-22T09:14:27.643Z,23.79
2022-10-22T09:17:16.489Z,23.86
2022-10-22T09:19:57.538Z,23.86
2022-10-22T09:22:55.602Z,23.85
2022-10-22T09:25:26.164Z,23.81
2022-10-22T09:27:58.766Z,23.91
2022-10-22T09:30:33.872Z,23.95
2022-10-22T09:33:07.014Z,23.96
2022-10-22T09:35:44.573Z,23.76
2022-10-22T09:38:14.919Z,23.83
2022-10-22T09:40:52.904Z,23.93
2022-10-22T09:43:21.010Z,23.95
2022-10-22T09:45:50.094Z,23.96
2022-10-22T09:48:34.713Z,24.04
2022-10-22T09:51:25.822Z,24.12
2022-10-22T09:54:02.438Z,24.20
2022-10-22T09:56:59.822Z,24.25
2022-10-22T09:59:41.649Z,24.36
2022-10-22T10:02:37.073Z,24.43
2022-10-22T10:05:06.794Z,24.65
2022-10-22T10:07:36.414Z,24.63
2022-10-22T10:10:21.937Z,24.76
2022-10-22T10:13:01.719Z,24.98
2022-10-22T10:15:51.983Z,25.08
2022-10-22T10:18:31.028Z,25.10
2022-10-22T10:21:01.134Z,25.13
2022-10-22T10:23:44.694Z,25.28
2022-10-22T10:26:53.143Z,25.40
2022-10-22T10:29:32.411Z,25.44
2022-10-22T10:32:23.713Z,25.57
2022-10-22T10:35:11.454Z,25.62
2022-10-22T10:38:29.617Z,25.62
2022-10-22T10:41:06.178Z,25.73
2022-10-22T10:43:39.268Z,25.81
2022-10-22T10:46:13.363Z,25.95
2022-10-22T10:49:01.639Z,26.09
2022-10-22T10:51:47.188Z,26.20
2022-10-22T10:54:33.696Z,26.33
2022-10-22T10:58:00.183Z,26.33
2022-10-22T11:00:32.974Z,26.43
2022-10-22T11:03:37.782Z,26.50
2022-10-22T11:06:12.599Z,26.63
2022-10-22T11:09:06.057Z,26.73
2022-10-22T11:11:51.969Z,26.80
2022-10-22T11:14:30.171Z,26.81
2022-10-22T11:17:01.939Z,26.85
2022-10-22T11:19:57.855Z,26.87
2022-10-22T11:23:06.718Z,26.94
2022-10-22T11:25:39.991Z,26.92
2022-10-22T11:28:22.627Z,27.07
2022-10-22T11:30:57.925Z,27.19
2022-10-22T11:33:34.267Z,27.32
2022-10-22T11:36:07.517Z,27.41
2022-10-22T11:38:36.652Z,27.49
2022-10-22T11:41:13.143Z,27.48
2022-10-22T11:44:07.757Z,27.57
2022-10-22T11:46:58.052Z,27.59
2022-10-22T11:49:44.317Z,27.61
2022-10-22T11:52:53.002Z,27.69
2022-10-22T11:55:51.726Z,27.73
2022-10-22T11:58:39.524Z,27.77
2022-10-22T12:01:09.529Z,27.79
2022-10-22T12:04:14.143Z,27.80
2022-10-22T12:07:01.817Z,27.81
2022-10-22T12:09:33.108Z,27.81
2022-10-22T12:12:13.853Z,27.75
2022-10-22T12:15:01.237Z,27.77
2022-10-22T12:17:29.566Z,27.75
2022-10-22T12:20:02.646Z,27.77
2022-10-22T12:22:37.832Z,27.75
2022-10-22T12:25:24.239Z,27.75
2022-10-22T12:27:55.176Z,27.74
2022-10-22T12:30:35.201Z,27.72
2022-10-22T12:33:11.489Z,27.69
2022-10-22T12:35:52.434Z,27.65
2022-10-22T12:38:24.681Z,27.60
2022-10-22T12:40:55.059Z,27.61
2022-10-22T12:43:28.476Z,27.63
2022-10-22T12:45:58.256Z,27.64
2022-10-22T12:48:29.953Z,27.70
2022-10-22T12:51:01.949Z,27.69
2022-10-22T12:53:38.489Z,27.73
2022-10-22T12:56:12.858Z,27.73
2022-10-22T12:59:08.208Z,27.68
2022-10-22T13:01:44.875Z,27.63
2022-10-22T13:04:37.429Z,27.59
2022-10-22T13:07:21.948Z,27.55
2022-10-22T13:10:00.795Z,27.54
2022-10-22T13:12:36.709Z,27.57
2022-10-22T13:15:42.715Z,27.59
2022-10-22T13:18:18.978Z,27.57
2022-10-22T13:20:59.189Z,27.60
2022-10-22T13:23:35.595Z,27.59
2022-10-22T13:26:18.531Z,27.65
2022-10-22T13:28:57.661Z,27.59
2022-10-22T13:31:34.250Z,27.60
2022-10-22T13:34:18.586Z,27.60
2022-10-22T13:36:51.743Z,27.50
2022-10-22T13:39:22.666Z,27.42
2022-10-22T13:41:51.515Z,27.50
2022-10-22T13:44:24.680Z,27.48
2022-10-22T13:46:58.414Z,27.41
2022-10-22T13:49:26.367Z,27.32
2022-10-22T13:51:54.094Z,27.30
2022-10-22T13:54:29.538Z,27.18
2022-10-22T13:56:57.126Z,27.10
2022-10-22T13:59:24.527Z,27.07
2022-10-22T14:01:52.939Z,27.12
2022-10-22T14:04:23.498Z,27.15
2022-10-22T14:06:51.155Z,27.15
2022-10-22T14:09:22.911Z,27.10
2022-10-22T14:11:50.352Z,27.07
2022-10-22T14:14:19.089Z,27.10
2022-10-22T14:16:46.913Z,27.09
2022-10-22T14:19:18.823Z,27.10
2022-10-22T14:21:46.339Z,27.07
2022-10-22T14:24:17.355Z,27.06
2022-10-22T14:26:45.285Z,27.11
2022-10-22T14:29:15.747Z,27.13
2022-10-22T14:31:45.023Z,27.13
2022-10-22T14:34:16.124Z,27.00
2022-10-22T14:36:44.613Z,27.02
2022-10-22T14:39:13.200Z,27.00
2022-10-22T14:41:41.476Z,26.87
2022-10-22T14:44:14.589Z,26.87
2022-10-22T14:46:44.428Z,26.72
2022-10-22T14:49:12.784Z,26.67
2022-10-22T14:51:40.344Z,26.72
2022-10-22T14:54:07.925Z,26.71
2022-10-22T14:59:02.947Z,26.68
2022-10-22T15:01:30.354Z,26.65
2022-10-22T15:03:57.672Z,26.65
2022-10-22T15:06:24.886Z,26.64
2022-10-22T15:08:52.435Z,26.64
2022-10-22T15:11:20.060Z,26.63
2022-10-22T15:13:47.438Z,26.68
2022-10-22T15:16:16.946Z,26.67
2022-10-22T15:18:44.921Z,26.69
2022-10-22T15:21:21.507Z,26.56
2022-10-22T15:23:50.072Z,26.49
2022-10-22T15:26:18.025Z,26.45
2022-10-22T15:28:45.326Z,26.33
2022-10-22T15:31:48.677Z,26.30
2022-10-22T15:34:28.506Z,26.25
2022-10-22T15:37:07.923Z,26.22
2022-10-22T15:39:40.978Z,26.15
2022-10-22T15:42:10.580Z,26.09
2022-10-22T15:44:40.493Z,26.08
2022-10-22T15:47:08.646Z,26.06
2022-10-22T15:49:38.819Z,26.01
2022-10-22T15:52:09.401Z,26.00
2022-10-22T15:54:37.407Z,25.99
2022-10-22T15:57:11.520Z,26.00
2022-10-22T15:59:39.181Z,25.97
2022-10-22T16:02:07.765Z,25.96
2022-10-22T16:04:42.673Z,25.92
2022-10-22T16:07:14.696Z,25.90
2022-10-22T16:09:45.032Z,25.82
2022-10-22T16:12:15.361Z,25.76
2022-10-22T16:14:52.050Z,25.73
2022-10-22T16:17:19.396Z,25.67
2022-10-22T16:19:49.172Z,25.64
2022-10-22T16:22:17.764Z,25.59
2022-10-22T16:24:45.192Z,25.59
2022-10-22T16:27:13.851Z,25.58
2022-10-22T16:29:42.358Z,25.51
2022-10-22T16:32:10.017Z,25.45
2022-10-22T16:34:38.671Z,25.43
2022-10-22T16:37:10.590Z,25.37
2022-10-22T16:39:38.115Z,25.32
2022-10-22T16:42:06.198Z,25.28
2022-10-22T16:44:33.669Z,25.27
2022-10-22T16:47:01.440Z,25.23
2022-10-22T16:49:29.397Z,25.18
2022-10-22T16:51:58.032Z,25.14
2022-10-22T16:54:26.082Z,25.12
2022-10-22T16:56:53.379Z,25.08
2022-10-22T16:59:21.699Z,25.07
2022-10-22T17:01:49.039Z,25.01
2022-10-22T17:04:19.011Z,24.98
2022-10-22T17:06:46.904Z,24.96
2022-10-22T17:09:21.327Z,24.90
2022-10-22T17:12:00.797Z,24.89
2022-10-22T17:14:28.411Z,24.87
2022-10-22T17:16:55.775Z,24.86
2022-10-22T17:19:24.117Z,24.86
2022-10-22T17:21:53.762Z,24.84
2022-10-22T17:24:21.420Z,24.84
2022-10-22T17:26:48.719Z,24.81
2022-10-22T17:29:16.120Z,24.81
2022-10-22T17:31:43.300Z,24.81
2022-10-22T17:34:16.274Z,24.77
2022-10-22T17:36:44.258Z,24.78
2022-10-22T17:39:16.026Z,24.75
2022-10-22T17:41:43.156Z,24.79
2022-10-22T17:44:17.629Z,24.84
2022-10-22T17:46:45.539Z,24.83
2022-10-22T17:49:17.603Z,24.81
2022-10-22T17:51:45.642Z,24.81
2022-10-22T17:54:14.377Z,24.81
2022-10-22T17:56:41.839Z,24.80
2022-10-22T17:59:13.799Z,24.76
2022-10-22T18:01:46.044Z,24.72
2022-10-22T18:04:20.892Z,24.69
2022-10-22T18:06:48.782Z,24.67
2022-10-22T18:09:24.102Z,24.64
2022-10-22T18:11:54.931Z,24.60
2022-10-22T18:14:24.225Z,24.58
2022-10-22T18:16:53.147Z,24.55
2022-10-22T18:19:32.177Z,24.59
2022-10-22T18:22:00.946Z,24.60
2022-10-22T18:24:32.399Z,24.58
2022-10-22T18:27:06.421Z,24.53
2022-10-22T18:29:37.865Z,24.55
2022-10-22T18:32:12.110Z,24.58
2022-10-22T18:34:44.947Z,24.56
2022-10-22T18:37:14.386Z,24.58
2022-10-22T18:39:42.457Z,24.56
2022-10-22T18:42:10.025Z,24.54
2022-10-22T18:44:40.782Z,24.52
2022-10-22T18:47:09.895Z,24.50
2022-10-22T18:49:37.660Z,24.48
2022-10-22T18:52:05.274Z,24.44
2022-10-22T18:54:33.156Z,24.46
2022-10-22T18:57:03.123Z,24.46
2022-10-22T18:59:31.930Z,24.47
2022-10-22T19:02:00.128Z,24.46
2022-10-22T19:04:33.525Z,24.45
2022-10-22T19:07:01.476Z,24.45
2022-10-22T19:09:29.839Z,24.47
2022-10-22T19:11:57.870Z,24.47
2022-10-22T19:14:26.699Z,24.47
2022-10-22T19:16:54.899Z,24.46
2022-10-22T19:19:23.381Z,24.41
2022-10-22T19:21:51.110Z,24.36
2022-10-22T19:24:20.357Z,24.34
2022-10-22T19:26:49.247Z,24.29
2022-10-22T19:29:18.637Z,24.29
2022-10-22T19:31:46.634Z,24.19
2022-10-22T19:34:19.857Z,24.14
2022-10-22T19:36:47.347Z,24.13
2022-10-22T19:39:18.696Z,24.12
2022-10-22T19:41:46.415Z,24.11
2022-10-22T19:44:15.365Z,24.08
2022-10-22T19:46:42.664Z,24.08
2022-10-22T19:49:11.746Z,24.07
2022-10-22T19:51:40.351Z,24.08
2022-10-22T19:54:11.873Z,24.03
2022-10-22T19:56:39.816Z,23.96
2022-10-22T19:59:07.206Z,23.96
2022-10-22T20:01:34.975Z,23.93
2022-10-22T20:04:02.606Z,23.93
2022-10-22T20:06:31.771Z,23.90
2022-10-22T20:08:59.301Z,23.86
2022-10-22T20:11:29.615Z,23.83
2022-10-22T20:13:58.354Z,23.74
2022-10-22T20:16:31.405Z,23.74
2022-10-22T20:19:04.024Z,23.72
2022-10-22T20:21:32.403Z,23.66
2022-10-22T20:24:00.265Z,23.67
2022-10-22T20:26:29.232Z,23.61
2022-10-22T20:28:57.769Z,23.59
2022-10-22T20:31:28.109Z,23.59
2022-10-22T20:34:04.531Z,23.50
2022-10-22T20:36:32.481Z,23.53
2022-10-22T20:39:09.444Z,23.55
2022-10-22T20:41:39.726Z,23.49
2022-10-22T20:44:11.749Z,23.50
2022-10-22T20:46:39.168Z,23.46
2022-10-22T20:49:13.710Z,23.43
2022-10-22T20:51:41.703Z,23.39
2022-10-22T20:54:10.421Z,23.39
2022-10-22T20:56:41.080Z,23.37
2022-10-22T20:59:11.557Z,23.35
2022-10-22T21:01:46.157Z,23.36
2022-10-22T21:04:15.094Z,23.36
2022-10-22T21:06:43.357Z,23.29
2022-10-22T21:09:14.365Z,23.20
2022-10-22T21:11:44.290Z,23.15
2022-10-22T21:14:14.255Z,23.12
2022-10-22T21:16:56.506Z,23.09
2022-10-22T21:19:25.133Z,22.91
2022-10-22T21:21:55.737Z,22.82
2022-10-22T21:24:25.294Z,22.81
2022-10-22T21:26:55.399Z,22.75
2022-10-22T21:29:23.615Z,22.67
2022-10-22T21:31:52.313Z,22.63
2022-10-22T21:34:24.244Z,22.61
2022-10-22T21:36:53.946Z,22.50
2022-10-22T21:39:41.110Z,22.43
2022-10-22T21:42:19.147Z,22.42
2022-10-22T21:45:13.636Z,22.42
2022-10-22T21:47:45.052Z,22.40
2022-10-22T21:50:13.905Z,22.40
2022-10-22T21:52:42.935Z,22.30
2022-10-22T21:55:13.024Z,22.17
2022-10-22T21:57:41.286Z,22.08
2022-10-22T22:00:14.671Z,22.17
2022-10-22T22:02:49.478Z,22.17
2022-10-22T22:05:18.317Z,22.04
2022-10-22T22:07:48.170Z,22.09
2022-10-22T22:10:16.562Z,22.04
2022-10-22T22:12:45.705Z,22.09
2022-10-22T22:15:14.173Z,22.06
2022-10-22T22:17:45.955Z,22.05
2022-10-22T22:20:13.532Z,21.97
2022-10-22T22:22:41.110Z,22.00
2022-10-22T22:25:09.163Z,21.83
2022-10-22T22:27:42.394Z,21.82
2022-10-22T22:30:10.935Z,21.90
2022-10-22T22:32:38.294Z,21.83
2022-10-22T22:35:06.622Z,21.84
2022-10-22T22:37:35.827Z,21.78
2022-10-22T22:40:03.831Z,21.79
2022-10-22T22:42:31.590Z,21.74
2022-10-22T22:44:59.232Z,21.74
2022-10-22T22:47:26.887Z,21.83
2022-10-22T22:49:54.497Z,21.79
2022-10-22T22:52:22.110Z,21.81
2022-10-22T22:54:49.664Z,21.86
2022-10-22T22:57:17.165Z,21.79
2022-10-22T22:59:44.718Z,21.83
2022-10-22T23:02:12.716Z,21.73
2022-10-22T23:04:40.373Z,21.73
2022-10-22T23:07:12.136Z,21.70
2022-10-22T23:09:39.996Z,21.73
2022-10-22T23:12:08.143Z,21.78
2022-10-22T23:14:35.653Z,21.75
2022-10-22T23:17:04.867Z,21.76
2022-10-22T23:19:33.759Z,21.82
2022-10-22T23:22:01.669Z,21.84
2022-10-22T23:24:30.775Z,21.77
2022-10-22T23:27:02.207Z,21.85
2022-10-22T23:29:34.477Z,21.83
2022-10-22T23:32:06.205Z,21.81
2022-10-22T23:34:34.219Z,21.83
2022-10-22T23:37:02.287Z,21.79
2022-10-22T23:39:30.660Z,21.75
2022-10-22T23:41:59.259Z,21.75
2022-10-22T23:44:27.126Z,21.64
2022-10-22T23:46:55.712Z,21.57
2022-10-22T23:49:24.023Z,21.51
2022-10-22T23:51:51.659Z,21.49
2022-10-22T23:54:19.496Z,21.56
2022-10-22T23:56:53.723Z,21.53
2022-10-22T23:59:21.610Z,21.52
